Time;durP1;ratioP1;P1;durP2;ratioP2;P2;SDS_P1;SDS_P2;PMS_P1;PMS_P2;Temp;Humidity;BMP_temperature;BMP_pressure;BME280_temperature;BME280_humidity;BME280_pressure;Samples;Min_cycle;Max_cycle;Signal;HPM_P1;HPM_P2
2023/06/16 00:01:09;;;;;;;11.13;7.57;;;12.00;20.20;;;;;;5014038;28;46712;-79
2023/06/16 00:03:35;;;;;;;16.13;8.37;;;12.10;20.20;;;;;;5015015;28;47405;-78
2023/06/16 00:06:03;;;;;;;12.23;7.60;;;12.00;20.30;;;;;;5014996;28;46567;-79
2023/06/16 00:08:30;;;;;;;15.53;7.67;;;12.10;20.40;;;;;;5018195;28;46469;-78
2023/06/16 00:10:56;;;;;;;12.77;7.87;;;12.10;20.40;;;;;;5021515;28;46424;-78
2023/06/16 00:13:22;;;;;;;12.73;7.90;;;12.20;20.50;;;;;;5018098;28;46132;-80
2023/06/16 00:15:47;;;;;;;10.17;7.70;;;12.20;20.40;;;;;;5022944;28;46473;-79
2023/06/16 00:18:13;;;;;;;11.20;7.60;;;12.20;20.70;;;;;;5015321;28;46425;-78
2023/06/16 00:20:39;;;;;;;11.17;7.23;;;12.20;21.10;;;;;;5018455;28;46275;-78
2023/06/16 00:23:07;;;;;;;12.27;8.03;;;12.20;21.20;;;;;;5016014;28;48130;-78
2023/06/16 00:25:32;;;;;;;14.13;7.57;;;12.20;21.20;;;;;;5014859;28;46360;-78
2023/06/16 00:27:58;;;;;;;11.47;7.67;;;12.30;21.40;;;;;;5015308;28;46709;-79
2023/06/16 00:30:23;;;;;;;12.03;8.13;;;12.20;21.20;;;;;;5016214;28;46447;-78
2023/06/16 00:32:49;;;;;;;13.00;8.30;;;12.20;21.30;;;;;;5017651;28;46474;-78
2023/06/16 00:35:15;;;;;;;11.80;7.30;;;12.20;21.40;;;;;;5016072;28;46455;-79
2023/06/16 00:37:41;;;;;;;10.33;7.37;;;12.10;21.40;;;;;;5011962;28;46419;-78
2023/06/16 00:40:08;;;;;;;12.17;7.80;;;12.10;21.60;;;;;;5013382;28;46321;-78
2023/06/16 00:42:33;;;;;;;11.53;7.10;;;12.00;21.80;;;;;;5011999;28;46275;-77
2023/06/16 00:44:59;;;;;;;12.37;7.70;;;12.00;21.80;;;;;;5015520;28;46541;-79
2023/06/16 00:47:25;;;;;;;11.80;7.30;;;11.90;21.90;;;;;;5017123;28;46434;-79
2023/06/16 00:49:51;;;;;;;11.73;7.07;;;11.90;22.10;;;;;;5012247;28;47017;-79
2023/06/16 00:52:17;;;;;;;13.73;8.27;;;11.90;22.30;;;;;;5018485;28;47814;-79
2023/06/16 00:54:43;;;;;;;10.87;7.23;;;11.80;22.30;;;;;;5013935;28;46491;-79
2023/06/16 00:57:09;;;;;;;10.70;7.07;;;11.70;22.40;;;;;;5020186;28;46443;-79
2023/06/16 00:59:35;;;;;;;10.73;7.17;;;11.70;22.60;;;;;;5020752;28;46592;-78
2023/06/16 01:02:01;;;;;;;11.50;7.67;;;11.60;22.70;;;;;;5016422;28;46555;-79
2023/06/16 01:04:27;;;;;;;13.03;8.00;;;11.50;22.80;;;;;;5012604;28;46434;-77
2023/06/16 01:07:28;;;;;;;9.40;6.80;;;11.50;23.00;;;;;;5016101;28;46447;-79
2023/06/16 01:10:04;;;;;;;9.20;7.10;;;11.40;23.10;;;;;;5011977;28;46314;-80
2023/06/16 01:12:49;;;;;;;12.40;7.67;;;11.40;23.10;;;;;;5014164;28;46330;-78
2023/06/16 01:15:20;;;;;;;11.77;7.83;;;11.30;23.00;;;;;;5011179;28;46129;-79
2023/06/16 01:17:47;;;;;;;15.80;8.03;;;11.30;22.90;;;;;;5012710;28;46317;-80
2023/06/16 01:20:29;;;;;;;11.20;7.93;;;11.40;23.00;;;;;;5014670;28;46571;-79
2023/06/16 01:23:12;;;;;;;14.43;8.17;;;11.40;23.00;;;;;;5012913;28;46360;-79
2023/06/16 01:25:39;;;;;;;13.33;8.17;;;11.40;23.00;;;;;;5013529;28;46458;-79
2023/06/16 01:28:07;;;;;;;15.37;8.70;;;11.40;23.00;;;;;;5014786;28;46342;-79
2023/06/16 01:30:34;;;;;;;14.30;7.70;;;11.40;23.20;;;;;;5010863;28;46435;-79
2023/06/16 01:33:02;;;;;;;10.77;7.73;;;11.30;23.30;;;;;;5013594;28;46356;-79
2023/06/16 01:35:30;;;;;;;12.00;8.40;;;11.20;23.50;;;;;;5019859;28;46343;-80
2023/06/16 01:37:57;;;;;;;16.03;8.03;;;11.10;23.60;;;;;;5013663;28;46439;-79
2023/06/16 01:40:24;;;;;;;20.40;7.93;;;11.10;23.70;;;;;;5012024;28;46435;-79
2023/06/16 01:42:51;;;;;;;12.13;7.40;;;11.10;23.80;;;;;;5013531;28;46305;-78
2023/06/16 01:45:18;;;;;;;12.00;8.83;;;11.10;24.20;;;;;;5011529;28;46352;-79
2023/06/16 01:47:46;;;;;;;14.17;6.87;;;11.10;24.20;;;;;;5011341;28;46703;-78
2023/06/16 01:50:12;;;;;;;12.70;7.77;;;11.10;24.10;;;;;;5016849;28;46658;-79
2023/06/16 01:52:38;;;;;;;10.47;7.77;;;11.10;24.10;;;;;;5017273;28;49016;-79
2023/06/16 01:55:04;;;;;;;11.67;8.03;;;11.30;24.10;;;;;;5017470;28;45852;-78
2023/06/16 01:57:30;;;;;;;10.87;7.83;;;11.10;24.00;;;;;;5014087;28;46476;-78
2023/06/16 02:00:03;;;;;;;13.80;8.47;;;11.20;24.20;;;;;;5014621;28;46349;-78
2023/06/16 02:02:30;;;;;;;11.30;8.20;;;11.20;24.20;;;;;;5019323;28;47800;-81
2023/06/16 02:05:00;;;;;;;13.83;9.23;;;11.20;24.20;;;;;;5015390;28;46515;-79
2023/06/16 02:07:34;;;;;;;11.53;8.00;;;11.20;24.30;;;;;;5009953;28;46333;-78
2023/06/16 02:10:01;;;;;;;17.97;8.67;;;11.40;24.40;;;;;;5008353;28;46420;-79
2023/06/16 02:12:28;;;;;;;14.07;8.17;;;11.20;24.40;;;;;;5017320;28;47923;-78
2023/06/16 02:14:55;;;;;;;12.97;7.73;;;11.20;24.30;;;;;;5011452;28;46792;-80
2023/06/16 02:17:26;;;;;;;13.27;7.80;;;11.30;24.40;;;;;;5009188;28;46191;-80
2023/06/16 02:19:54;;;;;;;15.80;9.90;;;11.30;24.40;;;;;;5007927;28;46546;-78
2023/06/16 02:22:19;;;;;;;14.13;8.50;;;11.30;24.40;;;;;;5010282;28;46618;-78
2023/06/16 02:24:46;;;;;;;14.20;8.13;;;11.40;24.50;;;;;;5010146;28;46383;-77
2023/06/16 02:27:13;;;;;;;15.50;8.47;;;11.40;24.50;;;;;;5008064;28;46743;-77
2023/06/16 02:29:40;;;;;;;12.30;8.47;;;11.40;24.60;;;;;;5010864;28;46418;-78
2023/06/16 02:32:06;;;;;;;11.60;8.37;;;11.40;24.70;;;;;;5012774;28;48359;-77
2023/06/16 02:34:32;;;;;;;16.53;9.90;;;11.40;24.70;;;;;;5010251;28;46525;-78
2023/06/16 02:36:58;;;;;;;12.20;8.57;;;11.40;24.90;;;;;;5009066;28;46454;-79
2023/06/16 02:39:23;;;;;;;14.53;8.63;;;11.30;25.00;;;;;;5012056;28;46585;-80
2023/06/16 02:41:49;;;;;;;11.77;8.37;;;11.20;25.30;;;;;;5024615;28;48380;-78
2023/06/16 02:44:15;;;;;;;13.50;8.40;;;11.10;25.30;;;;;;5008857;28;46464;-77
2023/06/16 02:46:40;;;;;;;12.37;7.57;;;11.10;25.60;;;;;;5009336;28;46123;-78
2023/06/16 02:49:06;;;;;;;10.90;7.27;;;11.00;25.70;;;;;;5011862;28;46650;-79
2023/06/16 02:51:31;;;;;;;12.30;8.33;;;10.90;25.90;;;;;;5012229;28;46685;-79
2023/06/16 02:53:59;;;;;;;11.47;8.10;;;10.80;26.10;;;;;;5010804;28;46385;-80
2023/06/16 02:56:25;;;;;;;11.83;8.30;;;10.70;26.30;;;;;;5009722;28;46467;-79
2023/06/16 02:58:51;;;;;;;14.33;9.00;;;10.60;26.50;;;;;;5014636;28;46463;-79
2023/06/16 03:01:16;;;;;;;14.07;8.47;;;10.60;26.50;;;;;;5009932;28;46364;-79
2023/06/16 03:03:42;;;;;;;12.87;8.70;;;10.50;26.50;;;;;;5019980;28;46495;-79
2023/06/16 03:06:08;;;;;;;12.60;7.23;;;10.40;26.40;;;;;;5017700;28;46438;-79
2023/06/16 03:08:34;;;;;;;11.93;8.00;;;10.40;26.40;;;;;;5013878;28;46431;-79
2023/06/16 03:11:00;;;;;;;9.57;7.10;;;10.40;26.50;;;;;;5010266;28;46886;-77
2023/06/16 03:13:26;;;;;;;11.53;7.70;;;10.30;26.30;;;;;;5008940;28;46328;-79
2023/06/16 03:15:52;;;;;;;10.17;6.70;;;10.40;26.40;;;;;;5017473;28;46714;-79
2023/06/16 03:18:18;;;;;;;11.47;6.93;;;10.20;26.20;;;;;;5013743;28;46565;-78
2023/06/16 03:20:45;;;;;;;11.13;7.60;;;10.20;26.30;;;;;;5012752;28;46788;-79
2023/06/16 03:23:12;;;;;;;12.30;8.30;;;10.30;26.30;;;;;;5011580;28;46426;-78
2023/06/16 03:25:38;;;;;;;12.20;7.40;;;10.30;26.30;;;;;;5010568;28;46470;-79
2023/06/16 03:28:06;;;;;;;12.20;7.57;;;10.30;26.30;;;;;;5018512;28;46550;-79
2023/06/16 03:30:32;;;;;;;11.93;7.73;;;10.30;26.30;;;;;;5011785;28;48213;-79
2023/06/16 03:32:58;;;;;;;12.87;8.50;;;10.30;26.30;;;;;;5014410;28;45777;-79
2023/06/16 03:35:23;;;;;;;11.03;7.53;;;10.30;26.30;;;;;;5014319;28;46876;-79
2023/06/16 03:37:49;;;;;;;14.20;8.40;;;10.40;26.40;;;;;;5010558;28;46364;-79
2023/06/16 03:40:17;;;;;;;13.30;8.70;;;10.40;26.40;;;;;;5030254;28;49219;-78
2023/06/16 03:42:42;;;;;;;14.33;8.70;;;10.40;26.40;;;;;;5018500;28;45853;-79
2023/06/16 03:45:09;;;;;;;20.90;9.40;;;10.50;26.50;;;;;;5017228;28;46453;-79
2023/06/16 03:47:35;;;;;;;21.40;8.83;;;10.60;26.50;;;;;;5019600;28;46460;-79
2023/06/16 03:50:02;;;;;;;17.53;8.53;;;10.70;26.30;;;;;;5037375;28;49533;-82
2023/06/16 03:52:28;;;;;;;16.60;9.40;;;10.80;26.00;;;;;;5020280;28;46422;-80
2023/06/16 03:54:53;;;;;;;16.70;9.80;;;10.90;25.90;;;;;;5012071;28;47390;-80
2023/06/16 03:57:19;;;;;;;15.27;8.83;;;11.00;25.50;;;;;;5014650;28;46344;-79
2023/06/16 03:59:44;;;;;;;14.97;8.97;;;11.20;25.30;;;;;;5013332;28;49176;-79
2023/06/16 04:02:11;;;;;;;16.40;9.23;;;11.40;25.10;;;;;;5019625;28;47365;-78
2023/06/16 04:04:37;;;;;;;15.70;9.13;;;11.60;24.90;;;;;;5014257;28;46373;-79
2023/06/16 04:07:04;;;;;;;13.53;9.80;;;11.80;24.80;;;;;;5014930;28;46607;-79
2023/06/16 04:09:30;;;;;;;17.20;9.20;;;11.90;24.70;;;;;;5015161;28;46510;-78
2023/06/16 04:11:56;;;;;;;16.40;9.90;;;12.10;24.70;;;;;;5016170;28;45727;-78
2023/06/16 04:14:22;;;;;;;13.10;9.30;;;12.20;24.80;;;;;;5016892;28;46836;-78
2023/06/16 04:16:48;;;;;;;13.03;7.90;;;12.20;24.80;;;;;;5014994;28;46264;-79
2023/06/16 04:19:13;;;;;;;14.80;9.23;;;12.40;24.80;;;;;;5018670;28;45999;-80
2023/06/16 04:21:41;;;;;;;17.40;8.93;;;12.50;24.70;;;;;;5015935;28;46283;-76
2023/06/16 04:24:10;;;;;;;14.00;9.63;;;12.80;24.80;;;;;;5019366;28;46518;-79
2023/06/16 04:26:37;;;;;;;13.70;9.00;;;12.80;24.60;;;;;;5020963;28;46936;-80
2023/06/16 04:29:04;;;;;;;13.00;8.80;;;13.00;24.40;;;;;;5013737;28;46698;-79
2023/06/16 04:31:32;;;;;;;17.30;9.70;;;13.20;24.30;;;;;;5018730;28;46472;-78
2023/06/16 04:33:58;;;;;;;12.63;8.30;;;13.40;24.20;;;;;;5017987;28;46531;-78
2023/06/16 04:36:25;;;;;;;16.10;10.10;;;13.60;24.00;;;;;;5013420;28;46548;-78
2023/06/16 04:38:53;;;;;;;20.13;8.60;;;13.70;23.80;;;;;;5011140;28;46570;-79
2023/06/16 04:41:19;;;;;;;14.87;7.80;;;13.90;23.70;;;;;;5017026;28;46348;-82
2023/06/16 04:43:44;;;;;;;13.80;8.50;;;14.10;23.60;;;;;;5020629;28;46264;-79
2023/06/16 04:46:10;;;;;;;12.90;9.40;;;14.30;23.50;;;;;;5016435;28;46343;-80
2023/06/16 04:48:36;;;;;;;12.87;8.23;;;14.50;23.30;;;;;;5013006;28;46620;-77
2023/06/16 04:51:01;;;;;;;14.40;8.83;;;14.60;23.20;;;;;;5012050;28;46380;-79
2023/06/16 04:53:28;;;;;;;13.73;9.20;;;14.70;23.10;;;;;;5015210;28;46736;-78
2023/06/16 04:55:54;;;;;;;14.13;9.37;;;14.80;23.00;;;;;;5013702;28;46406;-78
2023/06/16 04:58:20;;;;;;;11.73;8.23;;;14.90;22.90;;;;;;5013974;28;47077;-79
2023/06/16 05:00:46;;;;;;;11.77;8.53;;;15.00;22.70;;;;;;5018773;28;45773;-80
2023/06/16 05:03:11;;;;;;;13.77;9.00;;;15.10;22.60;;;;;;5019803;28;46279;-78
2023/06/16 05:05:37;;;;;;;13.20;8.93;;;15.20;22.60;;;;;;5011293;28;46218;-79
2023/06/16 05:08:03;;;;;;;13.40;8.73;;;15.30;22.70;;;;;;5011561;28;48339;-79
2023/06/16 05:10:29;;;;;;;15.17;8.17;;;15.30;22.60;;;;;;5013728;28;46397;-79
2023/06/16 05:12:57;;;;;;;17.43;9.10;;;15.40;22.60;;;;;;5016735;28;46490;-80
2023/06/16 05:15:23;;;;;;;16.50;9.20;;;15.40;22.60;;;;;;5011803;28;46601;-79
2023/06/16 05:17:48;;;;;;;17.43;8.93;;;15.50;22.50;;;;;;5009034;28;46517;-78
2023/06/16 05:20:14;;;;;;;17.70;8.50;;;15.60;22.50;;;;;;5014715;28;46491;-80
2023/06/16 05:22:40;;;;;;;14.40;8.20;;;15.70;22.50;;;;;;5013225;28;45980;-76
2023/06/16 05:25:06;;;;;;;12.50;9.17;;;15.80;22.40;;;;;;5015072;28;46381;-79
2023/06/16 05:27:31;;;;;;;13.50;8.40;;;15.90;22.30;;;;;;5012393;28;46386;-79
2023/06/16 05:29:57;;;;;;;12.50;8.60;;;16.00;22.10;;;;;;5010040;28;46506;-78
2023/06/16 05:32:22;;;;;;;16.20;8.00;;;16.30;21.90;;;;;;5014147;28;46559;-80
2023/06/16 05:34:52;;;;;;;13.63;8.03;;;16.90;21.40;;;;;;5012149;28;46366;-78
2023/06/16 05:37:18;;;;;;;10.33;7.57;;;17.10;20.80;;;;;;5013797;28;46764;-78
2023/06/16 05:39:48;;;;;;;15.87;8.30;;;17.80;20.60;;;;;;5030780;28;46550;-78
2023/06/16 05:42:14;;;;;;;10.40;7.70;;;18.00;20.00;;;;;;5013622;28;46319;-80
2023/06/16 05:44:44;;;;;;;10.93;6.20;;;18.60;19.30;;;;;;5011516;28;46990;-79
2023/06/16 05:47:10;;;;;;;9.37;7.07;;;18.80;18.70;;;;;;5017968;28;46443;-79
2023/06/16 05:49:36;;;;;;;18.93;7.37;;;20.50;16.70;;;;;;5015883;28;46313;-80
2023/06/16 05:52:04;;;;;;;8.23;5.97;;;22.20;13.70;;;;;;5014393;28;45851;-79
2023/06/16 05:54:29;;;;;;;8.10;5.53;;;23.20;12.60;;;;;;5014101;28;46648;-78
2023/06/16 05:56:58;;;;;;;9.37;6.50;;;22.60;13.20;;;;;;5011521;28;47247;-77
2023/06/16 05:59:25;;;;;;;13.60;5.73;;;22.10;14.60;;;;;;5008282;28;46476;-80
2023/06/16 06:01:51;;;;;;;14.50;5.90;;;21.80;15.20;;;;;;5016934;28;46459;-78
2023/06/16 06:04:21;;;;;;;13.03;6.00;;;21.40;15.30;;;;;;5003133;28;47163;-77
2023/06/16 06:06:46;;;;;;;7.90;5.67;;;21.00;15.30;;;;;;5004702;28;47963;-76
2023/06/16 06:09:12;;;;;;;9.23;5.90;;;20.80;15.40;;;;;;5005426;28;46538;-77
2023/06/16 06:11:37;;;;;;;8.70;5.80;;;20.80;15.50;;;;;;5007093;28;46809;-76
2023/06/16 06:14:03;;;;;;;14.27;5.80;;;20.70;14.90;;;;;;5010979;28;46408;-77
2023/06/16 06:16:30;;;;;;;8.10;5.53;;;20.60;14.90;;;;;;5009920;28;46498;-77
2023/06/16 06:18:55;;;;;;;12.13;5.60;;;20.60;14.80;;;;;;5007748;28;46478;-78
2023/06/16 06:21:21;;;;;;;9.10;6.47;;;20.80;14.50;;;;;;5008897;28;46503;-78
2023/06/16 06:23:47;;;;;;;9.67;6.13;;;21.00;14.10;;;;;;5009453;28;46465;-77
2023/06/16 06:26:13;;;;;;;7.93;5.40;;;21.20;13.70;;;;;;5015945;28;49224;-78
2023/06/16 06:28:38;;;;;;;8.87;5.83;;;21.30;13.10;;;;;;5013204;28;46969;-79
2023/06/16 06:31:04;;;;;;;9.47;5.23;;;21.40;12.50;;;;;;5008448;28;46962;-78
2023/06/16 06:33:30;;;;;;;9.60;5.80;;;21.50;12.40;;;;;;5011036;28;46369;-79
2023/06/16 06:35:55;;;;;;;9.40;6.30;;;21.60;12.50;;;;;;5006395;28;48238;-78
2023/06/16 06:38:21;;;;;;;11.93;5.60;;;21.80;12.10;;;;;;5009791;28;46743;-79
2023/06/16 06:40:47;;;;;;;7.80;4.53;;;21.90;11.80;;;;;;5007904;28;46491;-80
2023/06/16 06:43:12;;;;;;;12.57;6.07;;;22.10;11.30;;;;;;5012330;28;46705;-79
2023/06/16 06:45:41;;;;;;;15.23;5.30;;;22.20;10.80;;;;;;5011115;28;46561;-78
2023/06/16 06:48:06;;;;;;;8.17;5.53;;;22.30;10.40;;;;;;5006269;28;46486;-79
2023/06/16 06:50:32;;;;;;;8.90;5.60;;;22.60;9.90;;;;;;5007840;28;46478;-77
2023/06/16 06:52:57;;;;;;;7.87;5.20;;;22.60;9.40;;;;;;5009203;28;46329;-81
2023/06/16 06:55:23;;;;;;;8.03;5.67;;;22.50;9.00;;;;;;5005426;28;46651;-81
2023/06/16 06:57:49;;;;;;;9.87;5.53;;;22.40;9.10;;;;;;5010062;28;46544;-77
2023/06/16 07:00:15;;;;;;;9.53;4.93;;;22.40;8.90;;;;;;5004075;28;46499;-79
2023/06/16 07:02:41;;;;;;;10.60;5.73;;;22.30;8.60;;;;;;5004253;28;46523;-78
2023/06/16 07:05:08;;;;;;;8.60;5.50;;;22.40;8.60;;;;;;5004607;28;48571;-79
2023/06/16 07:07:34;;;;;;;8.50;5.03;;;22.40;8.40;;;;;;5008081;28;46482;-81
2023/06/16 07:09:59;;;;;;;10.30;5.67;;;22.60;8.30;;;;;;5007606;28;46546;-80
2023/06/16 07:12:25;;;;;;;11.53;6.30;;;22.60;8.00;;;;;;5005836;28;46499;-76
2023/06/16 07:14:51;;;;;;;7.40;4.80;;;22.70;7.80;;;;;;5007408;28;46957;-80
2023/06/16 07:17:17;;;;;;;7.97;5.53;;;22.90;7.50;;;;;;5006230;28;46431;-80
2023/06/16 07:19:43;;;;;;;7.70;4.90;;;23.20;7.00;;;;;;5007383;28;46473;-80
2023/06/16 07:22:08;;;;;;;7.63;5.13;;;23.20;6.70;;;;;;5008472;28;46472;-78
2023/06/16 07:24:34;;;;;;;8.70;4.97;;;23.50;6.70;;;;;;5006620;28;46461;-78
2023/06/16 07:27:01;;;;;;;12.93;5.20;;;23.50;6.20;;;;;;5007472;28;46520;-78
2023/06/16 07:29:27;;;;;;;8.33;5.00;;;23.70;5.90;;;;;;5025729;28;46650;-80
2023/06/16 07:31:53;;;;;;;10.40;5.20;;;23.70;6.10;;;;;;5008483;28;46641;-80
2023/06/16 07:34:19;;;;;;;9.10;5.77;;;23.50;6.10;;;;;;5009647;28;46498;-78
2023/06/16 07:36:44;;;;;;;11.83;5.83;;;23.50;6.20;;;;;;5008594;28;46992;-78
2023/06/16 07:39:10;;;;;;;11.57;5.40;;;23.70;6.20;;;;;;5022765;28;46879;-79
2023/06/16 07:41:36;;;;;;;14.50;5.30;;;24.10;5.70;;;;;;5006644;28;46516;-80
2023/06/16 07:44:02;;;;;;;8.30;4.80;;;24.40;5.20;;;;;;5004796;28;46522;-78
2023/06/16 07:46:28;;;;;;;10.03;5.80;;;24.70;4.50;;;;;;5024448;28;46455;-79
2023/06/16 07:48:53;;;;;;;7.00;4.50;;;24.90;3.90;;;;;;5006381;28;45962;-76
2023/06/16 07:51:21;;;;;;;9.03;5.20;;;25.00;3.40;;;;;;5009587;28;46788;-79
2023/06/16 07:53:48;;;;;;;7.97;5.57;;;25.10;3.60;;;;;;5004569;28;47376;-78
2023/06/16 07:56:14;;;;;;;12.20;4.70;;;25.20;3.60;;;;;;5007410;28;46397;-81
2023/06/16 07:58:39;;;;;;;9.20;5.40;;;25.40;3.10;;;;;;5007444;28;46552;-79
2023/06/16 08:01:06;;;;;;;7.87;4.90;;;25.40;2.80;;;;;;5008219;28;46950;-80
2023/06/16 08:03:31;;;;;;;11.53;5.13;;;25.10;3.50;;;;;;5008608;28;46524;-79
2023/06/16 08:05:57;;;;;;;6.13;4.70;;;25.10;3.40;;;;;;5007375;28;46462;-82
2023/06/16 08:08:27;;;;;;;6.87;4.40;;;24.70;3.20;;;;;;5007436;28;46529;-80
2023/06/16 08:10:55;;;;;;;7.47;4.00;;;24.60;3.20;;;;;;5008208;28;47003;-80
2023/06/16 08:13:21;;;;;;;9.23;4.13;;;24.50;3.10;;;;;;5006668;28;47295;-80
2023/06/16 08:15:46;;;;;;;6.40;3.87;;;23.90;1.00;;;;;;5007735;28;46685;-82
2023/06/16 08:18:12;;;;;;;7.70;3.87;;;23.40;1.00;;;;;;5008989;28;46487;-79
2023/06/16 08:20:37;;;;;;;8.30;4.10;;;23.40;1.20;;;;;;5006664;28;46753;-82
2023/06/16 08:23:03;;;;;;;12.80;4.23;;;23.50;1.20;;;;;;5006943;28;46559;-80
2023/06/16 08:25:28;;;;;;;13.80;3.63;;;23.80;1.40;;;;;;5012667;28;46913;-80
2023/06/16 08:27:54;;;;;;;15.23;4.80;;;23.60;1.00;;;;;;5012722;28;46643;-82
2023/06/16 08:30:19;;;;;;;7.00;4.30;;;23.40;1.00;;;;;;5018129;28;47074;-81
2023/06/16 08:32:45;;;;;;;7.70;3.70;;;23.40;1.00;;;;;;5008057;28;46466;-79
2023/06/16 08:35:11;;;;;;;9.30;3.30;;;23.50;1.00;;;;;;5012718;28;46980;-78
2023/06/16 08:37:36;;;;;;;9.20;4.13;;;23.70;1.00;;;;;;5011291;28;46925;-79
2023/06/16 08:40:07;;;;;;;7.37;3.87;;;24.00;1.00;;;;;;5011095;28;46487;-80
2023/06/16 08:42:37;;;;;;;5.90;3.73;;;23.80;1.00;;;;;;5009974;28;46429;-79
2023/06/16 08:45:03;;;;;;;12.27;4.33;;;23.80;1.00;;;;;;5009183;28;46523;-79
2023/06/16 08:47:29;;;;;;;10.83;3.97;;;23.50;1.00;;;;;;5007312;28;46490;-79
2023/06/16 08:49:56;;;;;;;9.67;3.67;;;23.80;1.00;;;;;;5001614;28;46860;-78
2023/06/16 08:52:25;;;;;;;5.80;3.77;;;23.80;1.00;;;;;;5009048;28;46611;-79
2023/06/16 08:54:57;;;;;;;8.90;4.37;;;24.00;1.00;;;;;;5011235;28;46900;-78
2023/06/16 08:57:24;;;;;;;8.43;4.10;;;24.20;1.00;;;;;;5010167;28;46528;-77
2023/06/16 08:59:55;;;;;;;7.77;3.93;;;24.60;1.00;;;;;;5009990;28;46444;-77
2023/06/16 09:02:21;;;;;;;15.33;3.90;;;24.50;1.00;;;;;;5008905;28;46520;-78
2023/06/16 09:04:47;;;;;;;9.43;3.67;;;24.60;1.00;;;;;;5010621;28;46458;-78
2023/06/16 09:07:19;;;;;;;12.10;3.60;;;24.60;1.00;;;;;;5011172;28;46704;-79
2023/06/16 09:09:49;;;;;;;8.13;3.73;;;24.90;1.00;;;;;;5009635;28;47012;-79
2023/06/16 09:12:14;;;;;;;13.43;4.40;;;24.70;1.00;;;;;;5012318;28;47257;-77
2023/06/16 09:14:42;;;;;;;8.43;3.90;;;24.20;1.00;;;;;;5008441;28;46169;-78
2023/06/16 09:17:09;;;;;;;8.67;3.40;;;24.30;1.00;;;;;;5009403;28;46931;-78
2023/06/16 09:19:48;;;;;;;12.87;4.27;;;24.80;1.00;;;;;;5010008;28;46589;-77
2023/06/16 09:22:22;;;;;;;7.23;3.97;;;24.90;1.00;;;;;;5008249;28;46451;-79
2023/06/16 09:25:04;;;;;;;13.13;4.37;;;25.00;1.00;;;;;;5011302;28;47394;-77
2023/06/16 09:27:49;;;;;;;6.63;4.20;;;24.60;1.00;;;;;;5011621;28;46368;-76
2023/06/16 09:30:20;;;;;;;11.73;3.87;;;24.60;1.00;;;;;;5009781;28;46958;-77
2023/06/16 09:32:47;;;;;;;6.03;3.40;;;24.20;1.00;;;;;;5023574;28;46833;-78
2023/06/16 09:35:21;;;;;;;12.17;3.80;;;24.00;1.00;;;;;;5011945;28;46518;-77
2023/06/16 09:37:49;;;;;;;5.43;3.20;;;24.20;1.00;;;;;;5009799;28;46683;-77
2023/06/16 09:40:16;;;;;;;12.40;3.73;;;24.60;1.00;;;;;;5008575;28;46483;-78
2023/06/16 09:42:43;;;;;;;7.13;4.07;;;24.90;1.00;;;;;;5008836;28;48195;-80
2023/06/16 09:45:13;;;;;;;5.70;3.70;;;25.50;1.00;;;;;;5028455;28;46486;-76
2023/06/16 09:47:43;;;;;;;9.53;4.23;;;25.60;1.00;;;;;;5009651;28;47221;-78
2023/06/16 09:50:13;;;;;;;9.20;3.70;;;26.00;1.00;;;;;;5006269;28;46721;-77
2023/06/16 09:52:41;;;;;;;6.57;4.23;;;26.20;1.00;;;;;;5010083;28;46675;-78
2023/06/16 09:55:07;;;;;;;7.60;3.80;;;26.00;1.00;;;;;;5008955;28;46971;-77
2023/06/16 09:57:32;;;;;;;6.90;3.10;;;26.10;1.00;;;;;;5009176;28;46444;-76
2023/06/16 09:59:58;;;;;;;6.17;3.70;;;26.20;1.00;;;;;;5011115;28;46475;-78
2023/06/16 10:02:27;;;;;;;12.10;3.77;;;26.30;1.00;;;;;;5014303;28;47213;-78
2023/06/16 10:04:56;;;;;;;9.23;3.90;;;26.20;1.00;;;;;;5010565;28;46481;-77
2023/06/16 10:07:23;;;;;;;7.20;4.07;;;26.10;1.00;;;;;;5002860;28;47784;-78
2023/06/16 10:09:51;;;;;;;7.93;3.63;;;25.70;1.00;;;;;;5010870;28;46780;-78
2023/06/16 10:12:18;;;;;;;7.47;3.90;;;25.10;1.00;;;;;;5009319;28;47681;-78
2023/06/16 10:14:45;;;;;;;8.37;3.63;;;25.10;1.00;;;;;;5008777;28;45912;-80
2023/06/16 10:17:13;;;;;;;10.87;4.07;;;25.10;1.00;;;;;;5008716;28;47721;-79
2023/06/16 10:19:44;;;;;;;12.53;4.27;;;25.00;1.00;;;;;;5012012;28;46483;-79
2023/06/16 10:22:11;;;;;;;8.83;3.90;;;25.10;1.00;;;;;;5013993;28;47366;-78
2023/06/16 10:24:39;;;;;;;9.40;3.33;;;25.20;1.00;;;;;;5010604;28;46570;-78
2023/06/16 10:27:06;;;;;;;6.20;3.70;;;25.20;1.00;;;;;;5008897;28;46395;-78
2023/06/16 10:29:32;;;;;;;7.53;3.70;;;25.00;1.00;;;;;;5011021;28;46462;-78
2023/06/16 10:32:07;;;;;;;8.60;2.97;;;25.40;1.00;;;;;;5009177;28;46212;-80
2023/06/16 10:34:34;;;;;;;13.57;3.53;;;25.20;1.00;;;;;;5009355;28;46423;-75
2023/06/16 10:37:01;;;;;;;11.37;4.10;;;24.90;1.00;;;;;;5004227;28;46494;-77
2023/06/16 10:39:27;;;;;;;12.90;4.27;;;24.50;1.00;;;;;;5010278;28;46158;-78
2023/06/16 10:42:00;;;;;;;11.70;4.00;;;24.30;1.00;;;;;;5010362;28;46529;-78
2023/06/16 10:44:30;;;;;;;9.70;3.90;;;23.80;1.00;;;;;;5007054;28;46652;-80
2023/06/16 10:47:05;;;;;;;8.07;3.70;;;23.40;1.00;;;;;;5007404;28;46432;-79
2023/06/16 10:49:31;;;;;;;8.00;3.70;;;23.10;1.00;;;;;;5008280;28;46480;-80
2023/06/16 10:51:59;;;;;;;6.73;2.90;;;23.10;1.00;;;;;;5011711;28;46452;-80
2023/06/16 10:54:36;;;;;;;8.50;3.30;;;23.00;1.00;;;;;;5011111;28;46491;-79
2023/06/16 10:57:07;;;;;;;6.47;3.00;;;22.90;1.00;;;;;;5005701;28;46644;-79
2023/06/16 10:59:51;;;;;;;10.10;3.93;;;22.90;1.00;;;;;;5010908;28;46720;-79
2023/06/16 11:02:20;;;;;;;6.20;3.43;;;22.90;1.00;;;;;;5008668;28;46503;-78
2023/06/16 11:05:07;;;;;;;7.57;3.50;;;22.80;1.00;;;;;;5005707;28;46679;-78
2023/06/16 11:08:08;;;;;;;6.50;3.97;;;22.80;1.00;;;;;;5009082;28;46639;-77
2023/06/16 11:10:53;;;;;;;9.40;4.10;;;22.90;1.00;;;;;;5006540;28;46460;-77
2023/06/16 11:13:30;;;;;;;13.00;4.30;;;23.40;1.00;;;;;;5008178;28;47164;-77
2023/06/16 11:15:56;;;;;;;6.47;3.97;;;23.80;1.00;;;;;;5009505;28;46328;-76
2023/06/16 11:18:26;;;;;;;6.80;3.57;;;24.40;1.00;;;;;;5010580;28;46708;-78
2023/06/16 11:20:59;;;;;;;10.67;4.73;;;24.60;1.00;;;;;;5009756;28;46567;-76
2023/06/16 11:23:25;;;;;;;7.53;4.10;;;24.70;1.00;;;;;;5007316;28;46424;-77
2023/06/16 11:25:51;;;;;;;8.93;3.63;;;24.60;1.00;;;;;;5007548;28;46742;-76
2023/06/16 11:28:21;;;;;;;8.73;4.13;;;24.60;1.00;;;;;;5006260;28;46452;-77
2023/06/16 11:30:47;;;;;;;14.73;4.40;;;25.00;1.00;;;;;;5007068;28;46607;-78
2023/06/16 11:33:16;;;;;;;10.70;3.60;;;25.50;1.00;;;;;;5007602;28;46431;-79
2023/06/16 11:35:42;;;;;;;11.47;3.70;;;25.40;1.00;;;;;;5006896;28;46730;-76
2023/06/16 11:38:08;;;;;;;12.20;4.20;;;25.00;1.00;;;;;;5012043;28;46555;-78
2023/06/16 11:40:35;;;;;;;9.30;3.80;;;25.20;1.00;;;;;;5010319;28;46025;-78
2023/06/16 11:43:05;;;;;;;14.13;4.63;;;25.30;1.00;;;;;;5008919;28;47638;-78
2023/06/16 11:45:33;;;;;;;8.73;3.90;;;25.40;1.00;;;;;;5012511;28;46574;-77
2023/06/16 11:48:01;;;;;;;8.43;3.53;;;25.30;1.00;;;;;;5014248;28;46915;-77
2023/06/16 11:50:27;;;;;;;7.97;3.50;;;25.70;1.00;;;;;;5010490;28;46321;-76
2023/06/16 11:52:53;;;;;;;9.57;4.03;;;26.10;1.00;;;;;;5012178;28;47120;-78
2023/06/16 11:55:19;;;;;;;11.87;4.47;;;26.20;1.00;;;;;;5008343;28;46404;-77
2023/06/16 11:57:45;;;;;;;9.37;3.63;;;26.30;1.00;;;;;;5007637;28;46528;-77
2023/06/16 12:00:12;;;;;;;16.47;4.50;;;26.80;1.00;;;;;;5012054;28;46706;-80
2023/06/16 12:02:39;;;;;;;6.23;3.63;;;26.70;1.00;;;;;;5016885;28;46519;-79
2023/06/16 12:05:07;;;;;;;7.93;4.30;;;26.40;1.00;;;;;;5013137;28;47119;-76
2023/06/16 12:07:33;;;;;;;10.23;3.80;;;26.00;1.00;;;;;;5016451;28;46789;-77
2023/06/16 12:10:05;;;;;;;8.30;3.87;;;25.50;1.00;;;;;;5011721;28;46682;-77
2023/06/16 12:12:31;;;;;;;9.37;4.30;;;25.20;1.00;;;;;;5008198;28;46416;-77
2023/06/16 12:14:59;;;;;;;10.43;4.37;;;25.00;1.00;;;;;;5008573;28;45851;-77
2023/06/16 12:17:25;;;;;;;14.33;4.10;;;24.60;1.00;;;;;;5007166;28;46435;-77
2023/06/16 12:19:52;;;;;;;7.60;3.60;;;24.80;1.00;;;;;;5009333;28;46546;-78
2023/06/16 12:22:18;;;;;;;13.03;3.90;;;25.00;1.00;;;;;;5010640;28;47862;-76
2023/06/16 12:24:44;;;;;;;7.50;4.30;;;25.20;1.00;;;;;;5009805;28;46108;-80
2023/06/16 12:27:26;;;;;;;9.37;4.17;;;25.70;1.00;;;;;;5008508;28;46614;-77
2023/06/16 12:29:56;;;;;;;7.33;3.90;;;26.00;1.00;;;;;;5023817;28;46531;-76
2023/06/16 12:32:32;;;;;;;15.23;4.20;;;25.90;1.00;;;;;;5007615;28;48956;-76
2023/06/16 12:34:58;;;;;;;7.13;3.70;;;25.60;1.00;;;;;;5008765;28;47026;-76
2023/06/16 12:37:30;;;;;;;11.60;4.50;;;25.40;1.00;;;;;;5005481;28;46947;-77
2023/06/16 12:40:03;;;;;;;9.93;4.33;;;24.80;1.00;;;;;;5008445;28;46527;-78
2023/06/16 12:42:29;;;;;;;12.10;4.20;;;24.40;1.00;;;;;;5009509;28;46959;-77
2023/06/16 12:44:59;;;;;;;6.07;3.77;;;24.30;1.00;;;;;;5010369;28;46693;-78
2023/06/16 12:47:26;;;;;;;10.97;4.57;;;24.60;1.00;;;;;;5007282;28;46939;-77